• Join FlightAware (Why Join?)
  • Login
  • US Flag 
08:34PM EST


 

Airport Tracker/Info


-or-


 

Live Flight TrackerFlight Track Log ✈ N896P ✈ 14-Sep-2013 ✈ KHLN - KSHR

Flight Track Log - Related Links

Times and Time Zones

All times are in EDT time to prevent confusion due to time zone crossing. See the N896P flight status page for this flight to view local times or setup timezone preferences in your user account.

Time Position Orientation Groundspeed Altitude Reporting Facility
EDT Latitude Longitude Course Direction KTS MPH feet Rate Location/Type
10:14PM 46.6869 -112.0111 120° Southeast 209 241 10,700  Level Salt Lake Center
10:15PM 46.7258 -111.9744 33° Northeast 207 238 14,200 3,120 Climbing Salt Lake Center
10:16PM 46.3770 -111.3036 122° Southeast  Level Estimated
10:16PM 46.6739 -111.9342 152° Southeast 231 266 17,200  Level Salt Lake Center
10:17PM 46.3310 -111.1970 122° Southeast  Level FlightAware Approximate
10:17PM 46.6431 -111.8481 118° Southeast 248 285 19,800  Level Salt Lake Center
10:18PM 46.2924 -111.0844 120° Southeast  Level Estimated
10:18PM 46.6086 -111.7631 121° Southeast 245 282 22,100  Level Salt Lake Center
10:19PM 46.2537 -110.9719 120° Southeast  Level Estimated
10:19PM 46.5658 -111.6544 120° Southeast 258 297 24,700  Level Salt Lake Center
10:20PM 46.5269 -111.5597 121° Southeast 271 312 26,600 1,800 Climbing Salt Lake Center
10:21PM 46.4878 -111.4614 120° Southeast 281 323 28,400 1,620 Climbing Salt Lake Center
10:22PM 46.4464 -111.3572 120° Southeast 297 342 29,900 1,500 Climbing Salt Lake Center
10:23PM 46.4017 -111.2447 120° Southeast 309 356 31,500 1,440 Climbing Salt Lake Center
10:24PM 46.3561 -111.1300 120° Southeast 319 367 32,900 840 Climbing Salt Lake Center
10:25PM 46.3097 -111.0144 120° Southeast 324 373 33,300 600 Climbing Salt Lake Center
10:26PM 46.2678 -110.9169 122° Southeast 328 377 34,200 780 Climbing Salt Lake Center
10:27PM 46.2133 -110.7864 121° Southeast 319 367 35,000 360 Climbing Salt Lake Center
10:28PM 46.1681 -110.6664 119° Southeast 342 394 35,000  Level Salt Lake Center
10:29PM 46.1136 -110.5419 122° Southeast 363 418 35,000 360 Level Salt Lake Center
10:30PM 46.0597 -110.4108 121° Southeast 375 432 35,800 840 Climbing Salt Lake Center
10:31PM 46.0061 -110.2822 121° Southeast 376 433 36,800 540 Climbing Salt Lake Center
10:32PM 45.9519 -110.1556 122° Southeast 372 428 37,000 60 Climbing Salt Lake Center
10:33PM 45.8989 -110.0269 121° Southeast 374 430 37,000  Level Salt Lake Center
10:34PM 45.8444 -109.8989 121° Southeast 376 433 37,000  Level Salt Lake Center
10:35PM 45.7922 -109.7617 119° Southeast 389 448 37,000  Level Salt Lake Center
10:36PM 45.7319 -109.6278 123° Southeast 398 458 37,000  Level Salt Lake Center
10:37PM 45.6725 -109.4939 122° Southeast 400 460 37,000  Level Salt Lake Center
10:38PM 45.6044 -109.3389 122° Southeast 385 443 37,000  Level Salt Lake Center
10:40PM 45.5492 -109.2089 121° Southeast 384 442 37,000  Level Salt Lake Center
10:41PM 45.4922 -109.0808 122° Southeast 383 441 37,000  Level Salt Lake Center
10:42PM 45.4356 -108.9522 122° Southeast 383 441 37,000  Level Salt Lake Center
10:43PM 45.3794 -108.8244 122° Southeast 381 438 37,000  Level Salt Lake Center
10:44PM 45.3233 -108.6975 122° Southeast 380 437 37,000  Level Salt Lake Center
10:45PM 45.2667 -108.5697 122° Southeast 382 440 37,000 -600 Level Salt Lake Center
10:46PM 45.2122 -108.4444 122° Southeast 374 430 35,900 -1,380 Descending Salt Lake Center
10:47PM 45.1556 -108.3189 123° Southeast 377 434 34,300 -1,800 Descending Salt Lake Center
10:48PM 45.0986 -108.1919 122° Southeast 380 437 32,300 -1,980 Descending Salt Lake Center
10:49PM 45.0428 -108.0636 122° Southeast 380 437 30,300 -1,980 Descending Salt Lake Center
10:50PM 44.9839 -107.9306 122° Southeast 389 448 28,300 -2,040 Descending Salt Lake Center
10:51PM 44.9217 -107.7953 123° Southeast 399 459 26,200 -2,040 Descending Salt Lake Center
10:52PM 44.8600 -107.6644 124° Southeast 394 453 24,200 -2,040 Descending Salt Lake Center
10:53PM 44.8069 -107.5478 123° Southeast 357 411 22,100 -1,980 Descending Salt Lake Center
10:54PM 44.8064 -107.4219 90° East 341 392 20,200 -1,920 Descending Salt Lake Center
10:55PM 44.8244 -107.2969 78° East 330 380 18,200 -2,160 Descending Salt Lake Center
10:56PM 44.8450 -107.1439 79° East 331 381 15,900 -2,100 Descending Salt Lake Center
10:57PM 44.8589 -107.0206 81° East 327 376 14,000 -960 Descending Salt Lake Center
10:58PM 44.8494 -106.9086 97° East 320 368 14,000  Level Salt Lake Center
10:59PM 44.7744 -106.8367 146° Southeast 325 374 14,000  Level Salt Lake Center
11:00PM 44.7017 -106.7656 145° Southeast 321 369 14,000  Level Salt Lake Center
11:01PM 44.6269 -106.6942 146° Southeast 322 371 14,000  Level Salt Lake Center
11:02PM 44.5522 -106.6281 148° Southeast 321 369 14,000 -300 Level Salt Lake Center
11:03PM 44.4744 -106.5817 157° South 324 373 13,400 -1,080 Descending Salt Lake Center
11:04PM 44.4278 -106.6678 233° Southwest 303 349 11,900 -1,500 Descending Salt Lake Center
11:05PM 44.4444 -106.7706 283° West 286 329 10,400 -960 Descending Salt Lake Center
11:06PM 44.5056 -106.8197 330° Northwest 281 323 10,000 -420 Descending Salt Lake Center
11:08PM 44.6341 -106.8920 340° North  Level FlightAware Approximate
11:15PM 44.7667 -106.9667 347° North  Level FlightAware Approximate
11:16PM 44.7692 -106.9803 347° North  Level Estimated
11:17PM 44.7692 -106.9803 347° North  Level Estimated